sensor_id;sensor_type;location;lat;lon;timestamp;P1;durP1;ratioP1;P2;durP2;ratioP2
25984;SDS011;66753;53.848;10.658;2023-04-22T00:13:27;4.50;;;2.00;;
25984;SDS011;66753;53.848;10.658;2023-04-22T00:28:27;4.88;;;2.75;;
25984;SDS011;66753;53.848;10.658;2023-04-22T00:43:28;4.20;;;2.08;;
25984;SDS011;66753;53.848;10.658;2023-04-22T00:58:28;5.18;;;2.05;;
25984;SDS011;66753;53.848;10.658;2023-04-22T01:13:29;5.40;;;2.30;;
25984;SDS011;66753;53.848;10.658;2023-04-22T01:28:29;5.60;;;2.42;;
25984;SDS011;66753;53.848;10.658;2023-04-22T01:43:30;4.20;;;2.20;;
25984;SDS011;66753;53.848;10.658;2023-04-22T01:58:32;4.47;;;2.47;;
25984;SDS011;66753;53.848;10.658;2023-04-22T02:13:36;5.73;;;2.33;;
25984;SDS011;66753;53.848;10.658;2023-04-22T02:28:39;7.53;;;2.83;;
25984;SDS011;66753;53.848;10.658;2023-04-22T02:43:42;6.83;;;2.63;;
25984;SDS011;66753;53.848;10.658;2023-04-22T02:58:45;6.17;;;3.20;;
25984;SDS011;66753;53.848;10.658;2023-04-22T03:13:45;5.35;;;2.50;;
25984;SDS011;66753;53.848;10.658;2023-04-22T03:28:46;5.55;;;2.58;;
25984;SDS011;66753;53.848;10.658;2023-04-22T03:43:46;5.47;;;2.85;;
25984;SDS011;66753;53.848;10.658;2023-04-22T03:58:46;7.97;;;3.00;;
25984;SDS011;66753;53.848;10.658;2023-04-22T04:13:47;8.05;;;3.67;;
25984;SDS011;66753;53.848;10.658;2023-04-22T04:28:47;6.10;;;3.47;;
25984;SDS011;66753;53.848;10.658;2023-04-22T04:43:48;11.85;;;5.00;;
25984;SDS011;66753;53.848;10.658;2023-04-22T04:58:49;9.33;;;3.40;;
25984;SDS011;66753;53.848;10.658;2023-04-22T05:13:49;7.43;;;3.40;;
25984;SDS011;66753;53.848;10.658;2023-04-22T05:28:52;8.27;;;4.03;;
25984;SDS011;66753;53.848;10.658;2023-04-22T05:43:53;7.82;;;3.22;;
25984;SDS011;66753;53.848;10.658;2023-04-22T05:58:53;7.18;;;3.45;;
25984;SDS011;66753;53.848;10.658;2023-04-22T06:13:54;7.32;;;4.18;;
25984;SDS011;66753;53.848;10.658;2023-04-22T06:28:55;7.95;;;4.50;;
25984;SDS011;66753;53.848;10.658;2023-04-22T06:43:55;8.70;;;4.53;;
25984;SDS011;66753;53.848;10.658;2023-04-22T06:58:55;7.53;;;4.80;;
25984;SDS011;66753;53.848;10.658;2023-04-22T07:13:56;7.82;;;4.90;;
25984;SDS011;66753;53.848;10.658;2023-04-22T07:28:57;8.38;;;4.72;;
25984;SDS011;66753;53.848;10.658;2023-04-22T07:43:58;8.05;;;5.18;;
25984;SDS011;66753;53.848;10.658;2023-04-22T07:58:58;7.07;;;5.50;;
25984;SDS011;66753;53.848;10.658;2023-04-22T08:13:59;7.90;;;5.18;;
25984;SDS011;66753;53.848;10.658;2023-04-22T08:28:59;8.00;;;4.45;;
25984;SDS011;66753;53.848;10.658;2023-04-22T08:44:00;8.07;;;4.90;;
25984;SDS011;66753;53.848;10.658;2023-04-22T08:59:02;7.33;;;4.67;;
25984;SDS011;66753;53.848;10.658;2023-04-22T09:14:03;9.20;;;5.97;;
25984;SDS011;66753;53.848;10.658;2023-04-22T09:29:03;9.75;;;5.93;;
25984;SDS011;66753;53.848;10.658;2023-04-22T09:44:17;5.93;;;4.17;;
25984;SDS011;66753;53.848;10.658;2023-04-22T09:59:22;5.87;;;4.53;;
25984;SDS011;66753;53.848;10.658;2023-04-22T10:14:27;8.93;;;4.13;;
25984;SDS011;66753;53.848;10.658;2023-04-22T10:29:34;6.93;;;3.87;;
25984;SDS011;66753;53.848;10.658;2023-04-22T10:44:46;6.17;;;3.77;;
25984;SDS011;66753;53.848;10.658;2023-04-22T10:59:48;7.83;;;4.40;;
25984;SDS011;66753;53.848;10.658;2023-04-22T11:14:51;6.00;;;4.30;;
25984;SDS011;66753;53.848;10.658;2023-04-22T11:30:02;5.80;;;3.97;;
25984;SDS011;66753;53.848;10.658;2023-04-22T11:45:03;5.60;;;3.30;;
25984;SDS011;66753;53.848;10.658;2023-04-22T12:00:05;7.27;;;3.67;;
25984;SDS011;66753;53.848;10.658;2023-04-22T12:15:08;6.43;;;4.53;;
25984;SDS011;66753;53.848;10.658;2023-04-22T12:30:09;5.17;;;3.77;;
25984;SDS011;66753;53.848;10.658;2023-04-22T12:45:10;4.88;;;3.38;;
25984;SDS011;66753;53.848;10.658;2023-04-22T13:00:11;6.28;;;3.03;;
25984;SDS011;66753;53.848;10.658;2023-04-22T13:15:15;6.00;;;3.00;;
25984;SDS011;66753;53.848;10.658;2023-04-22T13:30:18;4.77;;;3.17;;
25984;SDS011;66753;53.848;10.658;2023-04-22T13:45:19;4.85;;;3.50;;
25984;SDS011;66753;53.848;10.658;2023-04-22T14:00:19;5.32;;;3.63;;
25984;SDS011;66753;53.848;10.658;2023-04-22T14:15:20;5.10;;;3.70;;
25984;SDS011;66753;53.848;10.658;2023-04-22T14:30:20;3.92;;;2.97;;
25984;SDS011;66753;53.848;10.658;2023-04-22T14:45:21;3.88;;;3.25;;
25984;SDS011;66753;53.848;10.658;2023-04-22T15:00:22;4.57;;;3.27;;
25984;SDS011;66753;53.848;10.658;2023-04-22T15:15:26;3.47;;;2.27;;
25984;SDS011;66753;53.848;10.658;2023-04-22T15:30:26;4.50;;;3.17;;
25984;SDS011;66753;53.848;10.658;2023-04-22T15:45:27;4.03;;;2.50;;
25984;SDS011;66753;53.848;10.658;2023-04-22T16:00:27;6.55;;;2.90;;
25984;SDS011;66753;53.848;10.658;2023-04-22T16:15:28;3.92;;;2.72;;
25984;SDS011;66753;53.848;10.658;2023-04-22T16:30:28;5.20;;;2.78;;
25984;SDS011;66753;53.848;10.658;2023-04-22T16:45:29;5.28;;;3.25;;
25984;SDS011;66753;53.848;10.658;2023-04-22T17:00:30;4.53;;;2.63;;
25984;SDS011;66753;53.848;10.658;2023-04-22T17:15:30;5.18;;;2.72;;
25984;SDS011;66753;53.848;10.658;2023-04-22T17:30:32;3.87;;;2.53;;
25984;SDS011;66753;53.848;10.658;2023-04-22T17:45:32;3.75;;;2.40;;
25984;SDS011;66753;53.848;10.658;2023-04-22T18:00:33;3.92;;;2.63;;
25984;SDS011;66753;53.848;10.658;2023-04-22T18:15:34;3.80;;;2.87;;
25984;SDS011;66753;53.848;10.658;2023-04-22T18:30:35;4.82;;;2.58;;
25984;SDS011;66753;53.848;10.658;2023-04-22T18:45:36;6.50;;;3.15;;
25984;SDS011;66753;53.848;10.658;2023-04-22T19:00:36;6.75;;;4.72;;
25984;SDS011;66753;53.848;10.658;2023-04-22T19:15:36;4.65;;;2.92;;
25984;SDS011;66753;53.848;10.658;2023-04-22T19:30:37;4.82;;;3.15;;
25984;SDS011;66753;53.848;10.658;2023-04-22T19:45:37;4.88;;;3.00;;
25984;SDS011;66753;53.848;10.658;2023-04-22T20:00:38;4.22;;;3.15;;
25984;SDS011;66753;53.848;10.658;2023-04-22T20:15:38;4.32;;;2.67;;
25984;SDS011;66753;53.848;10.658;2023-04-22T20:30:39;5.55;;;3.15;;
25984;SDS011;66753;53.848;10.658;2023-04-22T20:45:40;4.45;;;3.60;;
25984;SDS011;66753;53.848;10.658;2023-04-22T21:00:41;5.53;;;3.42;;
25984;SDS011;66753;53.848;10.658;2023-04-22T21:16:15;4.63;;;2.80;;
25984;SDS011;66753;53.848;10.658;2023-04-22T21:46:10;5.67;;;2.80;;
25984;SDS011;66753;53.848;10.658;2023-04-22T22:01:11;5.82;;;3.10;;
25984;SDS011;66753;53.848;10.658;2023-04-22T22:16:11;6.25;;;3.08;;
25984;SDS011;66753;53.848;10.658;2023-04-22T22:31:11;4.50;;;2.65;;
25984;SDS011;66753;53.848;10.658;2023-04-22T22:46:12;4.82;;;2.90;;
25984;SDS011;66753;53.848;10.658;2023-04-22T23:01:13;6.82;;;3.47;;
25984;SDS011;66753;53.848;10.658;2023-04-22T23:16:13;7.40;;;4.97;;
25984;SDS011;66753;53.848;10.658;2023-04-22T23:31:15;6.27;;;4.43;;
25984;SDS011;66753;53.848;10.658;2023-04-22T23:46:17;6.37;;;3.70;;
